• Join FlightAware (Why Join?)
  • Login
  • US Flag 
05:19PM EDT


 

Airport Tracker/Info


-or-


 

Live Flight TrackerFlight Track Log ✈ AFL150 ✈ 13-Feb-2014 ✈ UUEE / SVO - MUHA / HAV

Flight Track Log - Related Links

Times and Time Zones

All times are in EST time to prevent confusion due to time zone crossing. See the AFL150 flight status page for this flight to view local times or setup timezone preferences in your user account.

Time Position Orientation Groundspeed Altitude Reporting Facility
EST Latitude Longitude Course Direction KTS MPH feet Rate Location/Type
04:30AM 56.1647 37.0937 313° West  Level FlightAware Approximate
04:31AM 56.2405 36.9466 313° West  Level FlightAware Approximate
04:32AM 56.3161 36.7989 313° West  Level FlightAware Approximate
04:33AM 56.3916 36.6507 313° West  Level FlightAware Approximate
04:34AM 56.4669 36.5018 313° West  Level FlightAware Approximate
04:35AM 56.5420 36.3524 312° West  Level FlightAware Approximate
04:36AM 56.6169 36.2024 312° West  Level FlightAware Approximate
04:37AM 56.6917 36.0518 312° West  Level FlightAware Approximate
04:38AM 56.7662 35.9006 312° West  Level FlightAware Approximate
04:39AM 56.8406 35.7487 312° West  Level FlightAware Approximate
04:40AM 56.9148 35.5963 312° West  Level FlightAware Approximate
04:41AM 56.9888 35.4433 312° West  Level FlightAware Approximate
04:42AM 57.0626 35.2897 312° West  Level FlightAware Approximate
04:43AM 57.1363 35.1354 311° West  Level FlightAware Approximate
04:44AM 57.2097 34.9805 311° West  Level FlightAware Approximate
04:45AM 57.2830 34.8251 311° West  Level FlightAware Approximate
04:46AM 57.3560 34.6690 311° West  Level FlightAware Approximate
04:47AM 57.4289 34.5123 311° West  Level FlightAware Approximate
04:48AM 57.5016 34.3549 311° West  Level FlightAware Approximate
04:49AM 57.5201 34.3097 310° West  Level FlightAware Approximate
04:50AM 57.5913 34.1494 310° West  Level FlightAware Approximate
04:51AM 57.6621 33.9886 310° West  Level FlightAware Approximate
04:52AM 57.7328 33.8272 309° West  Level FlightAware Approximate
04:53AM 57.8033 33.6651 309° West  Level FlightAware Approximate
04:54AM 57.8736 33.5023 309° West  Level FlightAware Approximate
04:55AM 57.9437 33.3390 309° West  Level FlightAware Approximate
04:56AM 58.0135 33.1750 309° West  Level FlightAware Approximate
04:57AM 58.0832 33.0103 309° West  Level FlightAware Approximate
04:58AM 58.1526 32.8451 309° West  Level FlightAware Approximate
04:59AM 58.2218 32.6791 308° West  Level FlightAware Approximate
04:59AM 56.4887 31.8975 308° West 419 482 34,000  Level FlightAware ADS-B (EVDA / DGP)
05:00AM 56.5015 31.7390 278° West 422 486 34,000  Level FlightAware ADS-B (EVDA / DGP)
05:01AM 56.5221 31.4818 278° West 422 486 34,000  Level FlightAware ADS-B (EVDA / DGP)
05:02AM 56.5402 31.2740 279° West 425 489 34,000  Level FlightAware ADS-B (EVDA / DGP)
05:03AM 56.5788 31.0690 289° West 431 496 34,000  Level FlightAware ADS-B (EVDA / DGP)
05:04AM 56.6384 30.8881 301° West 437 503 34,000  Level FlightAware ADS-B (EVDA / DGP)
05:05AM 56.7180 30.7162 310° West 436 502 34,000  Level FlightAware ADS-B (EVDA / DGP)
05:06AM 56.7864 30.5349 305° West 434 499 34,000  Level FlightAware ADS-B (EVDA / DGP)
05:07AM 56.8545 30.3530 304° West 439 505 34,000  Level FlightAware ADS-B (EVDA / DGP)
05:08AM 56.9220 30.1697 304° West 440 506 34,000  Level FlightAware ADS-B (EVDA / DGP)
05:09AM 56.9882 29.9883 304° West 439 505 34,000  Level FlightAware ADS-B (EVDA / DGP)
05:10AM 57.0563 29.8002 304° West 439 505 34,000  Level FlightAware ADS-B (EVDA / DGP)
05:11AM 57.1222 29.6168 304° West 440 506 34,000  Level FlightAware ADS-B (EVDA / DGP)
05:12AM 57.1895 29.4282 303° West 439 505 34,000  Level FlightAware ADS-B (EVDA / DGP)
05:13AM 57.2566 29.2383 303° West 436 502 34,000  Level FlightAware ADS-B (EVDA / DGP)
05:14AM 57.3209 29.0564 303° West 429 494 34,000  Level FlightAware ADS-B (EVDA / DGP)
05:15AM 57.3833 28.8772 303° West 426 490 34,000  Level FlightAware ADS-B (EVDA / DGP)
05:16AM 57.4493 28.6863 303° West 424 488 34,000  Level FlightAware ADS-B (EVDA / DGP)
05:17AM 57.5129 28.5009 303° West 424 488 34,000  Level FlightAware ADS-B (EVDA / DGP)
05:18AM 57.5760 28.3160 303° West 425 489 34,000  Level FlightAware ADS-B (EVDA / DGP)
05:19AM 57.6385 28.1312 302° West 426 490 34,000  Level FlightAware ADS-B (EVDA / DGP)
05:20AM 57.6964 27.9592 302° West 428 493 34,000  Level FlightAware ADS-B (EVDA / DGP)
05:21AM 57.7652 27.7533 302° West 429 494 34,000  Level FlightAware ADS-B (EVDA / DGP)
05:22AM 57.8269 27.5666 302° West 429 494 34,000  Level FlightAware ADS-B (EVDA / DGP)
05:23AM 57.8713 27.3596 292° West 426 490 34,000  Level FlightAware ADS-B (EVDA / DGP)
05:24AM 57.9131 27.1529 291° West 427 491 34,000  Level FlightAware ADS-B (EVDA / DGP)
05:25AM 57.9553 26.9423 291° West 427 491 34,000  Level FlightAware ADS-B (EVDA / DGP)
05:26AM 57.9962 26.7358 291° West 429 494 34,000  Level FlightAware ADS-B (EVDA / DGP)
05:27AM 58.0376 26.5251 290° West 431 496 34,000  Level FlightAware ADS-B (EVDA / DGP)
05:28AM 58.0789 26.3119 290° West 430 495 34,000  Level FlightAware ADS-B (EVDA / DGP)
05:29AM 58.1192 26.1024 290° West 430 495 34,000  Level FlightAware ADS-B (EVDA / DGP)
05:30AM 58.1605 25.8853 290° West 431 496 34,000  Level FlightAware ADS-B (EVDA / DGP)
05:31AM 58.2001 25.6744 290° West 431 496 34,000  Level FlightAware ADS-B (EVDA / DGP)
05:32AM 58.2396 25.4622 290° West 429 494 34,000  Level FlightAware ADS-B (EVDA / DGP)
05:33AM 58.2779 25.2532 289° West 432 497 34,000  Level FlightAware ADS-B (EVDA / DGP)
05:34AM 58.3183 25.0312 289° West 430 495 34,000  Level FlightAware ADS-B (EVDA / DGP)
05:35AM 58.3571 24.8145 289° West 430 495 34,000  Level FlightAware ADS-B (EVDA / DGP)
05:36AM 58.3963 24.5936 289° West 431 496 34,000  Level FlightAware ADS-B (EVDA / DGP)
05:37AM 58.4333 24.3767 288° West 430 495 34,000  Level FlightAware ADS-B (EVDA / DGP)
05:39AM 58.4309 24.3921 106° East 431 496 34,000  Level FlightAware ADS-B (EVDA / DGP)
05:50AM 58.8198 21.6218 294° West 433 498 34,000  Level FlightAware ADS-B (ESKB)
05:50AM 58.8355 21.4985 284° West 432 497 34,000  Level FlightAware ADS-B (ESKB)
05:51AM 58.8550 21.3444 284° West 433 498 34,000  Level FlightAware ADS-B (ESKB)
05:52AM 58.8913 21.1250 288° West 440 506 34,000  Level FlightAware ADS-B (ESKB)
05:53AM 58.9142 20.9928 289° West 438 504 34,000  Level FlightAware ADS-B (ESKB)
05:53AM 58.9301 20.8976 288° West 438 504 34,000  Level FlightAware ADS-B (ESKB)
05:54AM 58.9691 20.6600 288° West 436 502 34,000  Level FlightAware ADS-B (ESKB)
05:55AM 58.9884 20.5412 288° West 433 498 34,000  Level FlightAware ADS-B (ESKB)
05:55AM 59.0139 20.3839 287° West 427 491 34,000  Level FlightAware ADS-B (ESKB)
05:56AM 59.0334 20.2609 287° West 426 490 34,000  Level FlightAware ADS-B (ESKB)
05:57AM 59.0604 20.0906 287° West 426 490 34,000  Level FlightAware ADS-B (ESKB)
05:57AM 59.0824 19.9503 287° West 427 491 34,000  Level FlightAware ADS-B (ESKB)
05:58AM 59.1062 19.7976 287° West 428 493 34,000  Level FlightAware ADS-B (ESKB)
05:59AM 59.1294 19.6472 287° West 430 495 34,000  Level FlightAware ADS-B (ESKB)
05:59AM 59.1516 19.5023 287° West 434 499 34,000  Level FlightAware ADS-B (ESKB)
06:00AM 59.1748 19.3492 287° West 437 503 34,000  Level FlightAware ADS-B (ESKB)
06:01AM 59.1972 19.2004 286° West 438 504 34,000  Level FlightAware ADS-B (ESKB)
06:01AM 59.2191 19.0534 286° West 439 505 34,000  Level FlightAware ADS-B (ESKB)
06:02AM 59.2420 18.8976 286° West 441 507 34,000  Level FlightAware ADS-B (ESKB)
06:03AM 59.2644 18.7448 286° West 439 505 34,000  Level FlightAware ADS-B (ESKB)
06:03AM 59.2864 18.5928 286° West 436 502 34,000  Level FlightAware ADS-B (ESKB)
06:04AM 59.3080 18.4424 286° West 437 503 34,000  Level FlightAware ADS-B (ESKB)
06:05AM 59.3295 18.2913 286° West 439 505 34,000  Level FlightAware ADS-B (ESKB)
06:05AM 59.3503 18.1436 286° West 440 506 34,000  Level FlightAware ADS-B (ESKB)
06:06AM 59.3716 17.9918 285° West 440 506 34,000  Level FlightAware ADS-B (ESKB)
06:07AM 59.3941 17.8282 285° West 440 506 34,000  Level FlightAware ADS-B (ESKB)
06:07AM 59.4146 17.6784 285° West 442 509 34,000  Level FlightAware ADS-B (ESKB)
06:08AM 59.4352 17.5269 285° West 440 506 34,000  Level FlightAware ADS-B (ESKB)
06:09AM 59.4537 17.3886 285° West 439 505 34,000  Level FlightAware ADS-B (ESKB)
06:09AM 59.4742 17.2344 285° West 436 502 34,000  Level FlightAware ADS-B
06:09AM 59.4836 17.1631 285° West 436 502 34,000  Level FlightAware ADS-B
06:10AM 59.5037 17.0096 285° West 437 503 34,000  Level FlightAware ADS-B
06:11AM 59.5148 16.9246 284° West 441 507 34,000  Level FlightAware ADS-B (ESKB)
06:11AM 59.5282 16.8205 284° West 438 504 34,000  Level FlightAware ADS-B
06:12AM 59.5472 16.6718 284° West 440 506 34,000  Level FlightAware ADS-B (ESKB)
06:12AM 59.5639 16.5403 284° West 438 504 34,000  Level FlightAware ADS-B
06:13AM 59.5756 16.4475 284° West 440 506 34,000  Level FlightAware ADS-B (ESKB)
06:13AM 59.6001 16.2502 284° West 439 505 34,000  Level FlightAware ADS-B
06:14AM 59.6153 16.1278 284° West 442 509 34,000  Level FlightAware ADS-B (ESKB)
06:15AM 59.6344 15.9716 284° West 442 509 34,000  Level FlightAware ADS-B (ESKB)
06:15AM 59.6367 15.9526 284° West 441 507 34,000  Level FlightAware ADS-B (ESKB)
06:15AM 59.6475 15.8633 283° West 441 507 34,000  Level FlightAware ADS-B (ESKB)
06:16AM 59.6713 15.6644 283° West 444 511 34,000  Level FlightAware ADS-B
06:16AM 59.6864 15.5359 283° West 446 513 34,000  Level FlightAware ADS-B
06:17AM 59.7074 15.3562 283° West 448 516 34,000  Level FlightAware ADS-B
06:18AM 59.7292 15.1672 283° West 449 517 34,000  Level FlightAware ADS-B (ESVH)
06:18AM 59.7416 15.0588 283° West 450 518 34,000  Level FlightAware ADS-B
06:19AM 59.7554 14.9371 283° West 451 519 34,000  Level FlightAware ADS-B
06:20AM 59.7754 14.7584 283° West 451 519 34,000  Level FlightAware ADS-B
06:20AM 59.7891 14.6356 283° West 452 520 34,000  Level FlightAware ADS-B
06:21AM 59.8023 14.5147 282° West 453 521 34,000  Level FlightAware ADS-B
06:21AM 59.8159 14.3898 282° West 455 524 34,000  Level FlightAware ADS-B
06:22AM 59.8315 14.2447 282° West 455 524 34,000  Level FlightAware ADS-B (ESVH)
06:22AM 59.8482 14.0879 282° West 454 522 34,000  Level FlightAware ADS-B
06:23AM 59.8611 13.9649 282° West 454 522 34,000  Level FlightAware ADS-B
06:23AM 59.8767 13.8138 282° West 455 524 34,000  Level FlightAware ADS-B (ESVH)
06:24AM 59.8926 13.6592 282° West 455 524 34,000  Level FlightAware ADS-B
06:25AM 59.9052 13.5357 282° West 455 524 34,000  Level FlightAware ADS-B
06:25AM 59.9196 13.3920 281° West 454 522 34,000  Level FlightAware ADS-B (ESVH)
06:26AM 59.9363 13.2242 281° West 456 525 34,000  Level FlightAware ADS-B
06:27AM 59.9538 13.0454 281° West 456 525 34,000  Level FlightAware ADS-B
06:27AM 59.9661 12.9170 281° West 456 525 34,000  Level FlightAware ADS-B
06:28AM 59.9809 12.7623 281° West 456 525 34,000  Level FlightAware ADS-B
06:28AM 59.9953 12.6060 280° West 452 520 34,000  Level FlightAware ADS-B
06:29AM 60.0089 12.4453 280° West 455 524 34,000  Level FlightAware ADS-B (ESVH)
06:29AM 60.0099 12.4356 282° West 452 520 34,000  Level FlightAware ADS-B
06:30AM 60.0267 12.3145 286° West 460 529 34,000  Level FlightAware ADS-B
06:31AM 60.0596 12.1004 287° West 461 531 34,000  Level FlightAware ADS-B
06:31AM 60.0883 11.9027 286° West 462 532 34,000  Level FlightAware ADS-B (ESVH)
06:32AM 60.1081 11.7646 286° West 459 528 34,000  Level FlightAware ADS-B (ESVH)
06:32AM 60.1263 11.6365 286° West 460 529 34,000  Level FlightAware ADS-B (ESVH)
06:49AM 60.6351 7.5312 282° West 460 529 34,000  Level FlightAware ADS-B (EGBP)
06:50AM 60.6520 7.3703 282° West 458 527 34,000  Level FlightAware ADS-B (EGBP)
06:50AM 60.6704 7.1960 282° West 454 522 34,000  Level FlightAware ADS-B (EGBP)
06:51AM 60.6877 7.0286 282° West 455 524 34,000  Level FlightAware ADS-B (EGBP)
06:52AM 60.7047 6.8611 282° West 456 525 34,000  Level FlightAware ADS-B (EGBP)
06:52AM 60.7213 6.6964 282° West 458 527 34,000  Level FlightAware ADS-B (EGBP)
06:53AM 60.7384 6.5254 282° West 460 529 34,000  Level FlightAware ADS-B (EGBP)
06:54AM 60.7550 6.3560 281° West 455 524 34,000  Level FlightAware ADS-B (EGBP)
06:54AM 60.7710 6.1900 281° West 453 521 34,000  Level FlightAware ADS-B (EGBP)
06:55AM 60.7871 6.0202 281° West 451 519 34,000  Level FlightAware ADS-B (EGBP)
06:56AM 60.8030 5.8517 281° West 450 518 34,000  Level FlightAware ADS-B (EGBP)
06:56AM 60.8182 5.6862 281° West 452 520 34,000  Level FlightAware ADS-B (EGBP)
06:57AM 60.8323 5.5309 281° West 454 522 34,000  Level FlightAware ADS-B (EGBP)
06:59AM 60.8630 5.1662 280° West  Level Estimated
07:00AM 60.8815 4.9402 280° West  Level Estimated
07:01AM 60.8996 4.7139 279° West  Level Estimated
07:02AM 60.9173 4.4874 279° West  Level Estimated
07:03AM 60.9346 4.2607 279° West  Level Estimated
07:04AM 60.9516 4.0337 279° West  Level Estimated
07:05AM 60.9682 3.8065 279° West  Level Estimated
07:06AM 60.9844 3.5790 278° West  Level Estimated
07:07AM 61.0002 3.3513 278° West  Level Estimated
07:08AM 61.0156 3.1234 278° West  Level Estimated
07:09AM 61.0307 2.8953 278° West  Level Estimated
07:10AM 61.0453 2.6669 278° West  Level Estimated
07:11AM 61.0596 2.4383 277° West  Level Estimated
07:12AM 61.0735 2.2096 277° West  Level Estimated
07:13AM 61.0870 1.9806 277° West  Level Estimated
07:14AM 61.1001 1.7515 277° West  Level Estimated
07:15AM 61.1128 1.5221 277° West  Level Estimated
07:16AM 61.1251 1.2926 276° West  Level Estimated
07:17AM 61.1371 1.0629 276° West  Level Estimated
07:18AM 61.1486 0.8330 276° West  Level Estimated
07:19AM 61.1598 0.6030 276° West  Level Estimated
07:20AM 61.1705 0.3728 276° West  Level Estimated
07:21AM 61.1809 0.1425 275° West  Level Estimated
07:22AM 61.1909 -0.0880 275° West  Level Estimated
07:23AM 61.2005 -0.3187 275° West  Level Estimated
07:24AM 61.2097 -0.5494 275° West  Level Estimated
07:25AM 61.2185 -0.7804 275° West  Level Estimated
07:26AM 61.2270 -1.0114 274° West  Level Estimated
07:27AM 61.2350 -1.2426 274° West  Level Estimated
07:28AM 61.2426 -1.4738 274° West  Level Estimated
07:29AM 61.2499 -1.7052 274° West  Level Estimated
07:30AM 61.2567 -1.9367 274° West  Level Estimated
07:31AM 61.2631 -2.1683 273° West  Level Estimated
07:32AM 61.2692 -2.4000 273° West  Level Estimated
07:33AM 61.2749 -2.6317 273° West  Level Estimated
07:34AM 61.2801 -2.8636 273° West  Level Estimated
07:35AM 61.2850 -3.0955 273° West  Level Estimated
07:36AM 61.2895 -3.3275 272° West  Level Estimated
07:37AM 61.2936 -3.5595 272° West  Level Estimated
07:38AM 61.2972 -3.7916 272° West  Level Estimated
07:39AM 61.3005 -4.0238 272° West  Level Estimated
07:40AM 61.3034 -4.2560 272° West  Level Estimated
07:41AM 61.3059 -4.4882 271° West  Level Estimated
07:42AM 61.3080 -4.7205 271° West  Level Estimated
07:43AM 61.3097 -4.9528 271° West  Level Estimated
07:44AM 61.3110 -5.1852 271° West  Level Estimated
07:45AM 61.3119 -5.4175 271° West  Level Estimated
07:46AM 61.3124 -5.6499 270° West  Level Estimated
07:47AM 61.3125 -5.8822 270° West  Level Estimated
07:48AM 61.3123 -6.1146 270° West  Level Estimated
07:49AM 61.3116 -6.3470 270° West  Level Estimated
07:50AM 61.3105 -6.5793 270° West  Level Estimated
07:51AM 61.3090 -6.8116 269° West  Level Estimated
07:52AM 61.3072 -7.0439 269° West  Level Estimated
07:53AM 61.3049 -7.2762 269° West  Level Estimated
07:54AM 61.3022 -7.5084 269° West  Level Estimated
07:55AM 61.2992 -7.7406 269° West  Level Estimated
07:56AM 61.2957 -7.9727 268° West  Level Estimated
07:57AM 61.2919 -8.2048 268° West  Level Estimated
07:58AM 61.2876 -8.4368 268° West  Level Estimated
07:59AM 61.2830 -8.6688 268° West  Level Estimated
08:00AM 61.2779 -8.9007 268° West  Level Estimated
08:01AM 61.2725 -9.1325 267° West  Level Estimated
08:02AM 61.2667 -9.3642 267° West  Level Estimated
08:03AM 61.2605 -9.5959 267° West  Level Estimated
08:04AM 61.2538 -9.8274 267° West  Level Estimated
08:05AM 61.2468 -10.0589 266° West  Level Estimated
08:06AM 61.2394 -10.2902 266° West  Level Estimated
08:07AM 61.2316 -10.5214 266° West  Level Estimated
08:08AM 61.2234 -10.7525 266° West  Level Estimated
08:09AM 61.2148 -10.9835 266° West  Level Estimated
08:10AM 61.2058 -11.2144 265° West  Level Estimated
08:11AM 61.1965 -11.4451 265° West  Level Estimated
08:12AM 61.1867 -11.6757 265° West  Level Estimated
08:13AM 61.1766 -11.9061 265° West  Level Estimated
08:14AM 61.1660 -12.1364 265° West  Level Estimated
08:15AM 61.1551 -12.3665 264° West  Level Estimated
08:16AM 61.1437 -12.5965 264° West  Level Estimated
08:17AM 61.1320 -12.8263 264° West  Level Estimated
08:18AM 61.1199 -13.0559 264° West  Level Estimated
08:19AM 61.1074 -13.2853 264° West  Level Estimated
08:20AM 61.0945 -13.5146 263° West  Level Estimated
08:21AM 61.0812 -13.7437 263° West  Level Estimated
08:22AM 61.0676 -13.9725 263° West  Level Estimated
08:23AM 61.0535 -14.2012 263° West  Level Estimated
08:24AM 61.0391 -14.4297 263° West  Level Estimated
08:25AM 61.0243 -14.6580 262° West  Level Estimated
08:26AM 61.0091 -14.8860 262° West  Level Estimated
08:27AM 60.9935 -15.1138 262° West  Level Estimated
08:28AM 60.9775 -15.3414 262° West  Level Estimated
08:29AM 60.9612 -15.5688 262° West  Level Estimated
08:30AM 60.9444 -15.7959 261° West  Level Estimated
08:31AM 60.9273 -16.0228 261° West  Level Estimated
08:32AM 60.9098 -16.2494 261° West  Level Estimated
08:33AM 60.8919 -16.4758 261° West  Level Estimated
08:34AM 60.8737 -16.7020 261° West  Level Estimated
08:35AM 60.8550 -16.9278 260° West  Level Estimated
08:36AM 60.8360 -17.1534 260° West  Level Estimated
08:37AM 60.8166 -17.3788 260° West  Level Estimated
08:38AM 60.7968 -17.6038 260° West  Level Estimated
08:39AM 60.7767 -17.8286 260° West  Level Estimated
08:40AM 60.7562 -18.0531 259° West  Level Estimated
08:41AM 60.7353 -18.2773 259° West  Level Estimated
08:42AM 60.7140 -18.5012 259° West  Level Estimated
08:43AM 60.6923 -18.7248 259° West  Level Estimated
08:44AM 60.6703 -18.9481 259° West  Level Estimated
08:45AM 60.6479 -19.1711 259° West  Level Estimated
08:46AM 60.6252 -19.3938 258° West  Level Estimated
08:47AM 60.6020 -19.6162 258° West  Level Estimated
08:48AM 60.5785 -19.8382 258° West  Level Estimated
08:49AM 60.5547 -20.0600 258° West  Level Estimated
08:50AM 60.5304 -20.2814 258° West  Level Estimated
08:51AM 60.5059 -20.5024 257° West  Level Estimated
08:52AM 60.4809 -20.7232 257° West  Level Estimated
08:53AM 60.4556 -20.9435 257° West  Level Estimated
08:54AM 60.4299 -21.1636 257° West  Level Estimated
08:55AM 60.4038 -21.3833 257° West  Level Estimated
08:56AM 60.3774 -21.6026 256° West  Level Estimated
08:57AM 60.3506 -21.8216 256° West  Level Estimated
08:58AM 60.3235 -22.0402 256° West  Level Estimated
08:59AM 60.2960 -22.2584 256° West  Level Estimated
09:00AM 60.2682 -22.4763 256° West  Level Estimated
09:01AM 60.2400 -22.6938 255° West  Level Estimated
09:02AM 60.2114 -22.9109 255° West  Level Estimated
09:03AM 60.1825 -23.1277 255° West  Level Estimated
09:04AM 60.1532 -23.3441 255° West  Level Estimated
09:05AM 60.1236 -23.5600 255° West  Level Estimated
09:06AM 60.0936 -23.7756 255° West  Level Estimated
09:07AM 60.0633 -23.9908 254° West  Level Estimated
09:08AM 60.0326 -24.2056 254° West  Level Estimated
09:09AM 60.0016 -24.4200 254° West  Level Estimated
09:10AM 59.9703 -24.6340 254° West  Level Estimated
09:11AM 59.9386 -24.8476 254° West  Level Estimated
09:12AM 59.9065 -25.0608 253° West  Level Estimated
09:13AM 59.8741 -25.2735 253° West  Level Estimated
09:14AM 59.8414 -25.4859 253° West  Level Estimated
09:15AM 59.8083 -25.6978 253° West  Level Estimated
09:16AM 59.7749 -25.9093 253° West  Level Estimated
09:17AM 59.7411 -26.1204 252° West  Level Estimated
09:18AM 59.7070 -26.3310 252° West  Level Estimated
09:19AM 59.6726 -26.5412 252° West  Level Estimated
09:20AM 59.6378 -26.7510 252° West  Level Estimated
09:21AM 59.6027 -26.9604 252° West  Level Estimated
09:22AM 59.5673 -27.1693 252° West  Level Estimated
09:23AM 59.5315 -27.3777 251° West  Level Estimated
09:24AM 59.4954 -27.5858 251° West  Level Estimated
09:25AM 59.4590 -27.7933 251° West  Level Estimated
09:26AM 59.4222 -28.0005 251° West  Level Estimated
09:27AM 59.3851 -28.2071 251° West  Level Estimated
09:28AM 59.3477 -28.4134 250° West  Level Estimated
09:29AM 59.3100 -28.6191 250° West  Level Estimated
09:30AM 59.2719 -28.8244 250° West  Level Estimated
09:31AM 59.2336 -29.0293 250° West  Level Estimated
09:32AM 59.1949 -29.2337 250° West  Level Estimated
09:33AM 59.1558 -29.4376 250° West  Level Estimated
09:34AM 59.1165 -29.6411 249° West  Level Estimated
09:35AM 59.0768 -29.8441 249° West  Level Estimated
09:36AM 59.0369 -30.0466 249° West  Level Estimated
09:37AM 58.9966 -30.2486 249° West  Level Estimated
09:38AM 58.9560 -30.4502 249° West  Level Estimated
09:39AM 58.9151 -30.6513 249° West  Level Estimated
09:40AM 58.8738 -30.8519 248° West  Level Estimated
09:41AM 58.8323 -31.0521 248° West  Level Estimated
09:42AM 58.7904 -31.2517 248° West  Level Estimated
09:43AM 58.7483 -31.4509 248° West  Level Estimated
09:44AM 58.7058 -31.6496 248° West  Level Estimated
09:45AM 58.6631 -31.8478 248° West  Level Estimated
09:46AM 58.6200 -32.0455 247° West  Level Estimated
09:47AM 58.5766 -32.2427 247° West  Level Estimated
09:48AM 58.5329 -32.4395 247° West  Level Estimated
09:49AM 58.4890 -32.6357 247° West  Level Estimated
09:50AM 58.4447 -32.8315 247° West  Level Estimated
09:51AM 58.4001 -33.0267 247° West  Level Estimated
09:52AM 58.3553 -33.2215 246° West  Level Estimated
09:53AM 58.3101 -33.4158 246° West  Level Estimated
09:54AM 58.2646 -33.6096 246° West  Level Estimated
09:55AM 58.2189 -33.8028 246° West  Level Estimated
09:56AM 58.1729 -33.9956 246° West  Level Estimated
09:57AM 58.1265 -34.1879 246° West  Level Estimated
09:58AM 58.0799 -34.3797 245° Southwest  Level Estimated
09:59AM 58.0330 -34.5709 245° Southwest  Level Estimated
10:00AM 57.9858 -34.7617 245° Southwest  Level Estimated
10:01AM 57.9384 -34.9520 245° Southwest  Level Estimated
10:02AM 57.8906 -35.1417 245° Southwest  Level Estimated
10:03AM 57.8425 -35.3310 245° Southwest  Level Estimated
10:04AM 57.7942 -35.5197 244° Southwest  Level Estimated
10:05AM 57.7456 -35.7080 244° Southwest  Level Estimated
10:06AM 57.6968 -35.8957 244° Southwest  Level Estimated
10:07AM 57.6476 -36.0830 244° Southwest  Level Estimated
10:08AM 57.5982 -36.2697 244° Southwest  Level Estimated
10:09AM 57.5485 -36.4559 244° Southwest  Level Estimated
10:10AM 57.4985 -36.6416 243° Southwest  Level Estimated
10:11AM 57.4482 -36.8268 243° Southwest  Level Estimated
10:12AM 57.3977 -37.0115 243° Southwest  Level Estimated
10:13AM 57.3469 -37.1957 243° Southwest  Level Estimated
10:14AM 57.2958 -37.3794 243° Southwest  Level Estimated
10:15AM 57.2445 -37.5625 243° Southwest  Level Estimated
10:16AM 57.1929 -37.7452 243° Southwest  Level Estimated
10:17AM 57.1411 -37.9273 242° Southwest  Level Estimated
10:18AM 57.0890 -38.1090 242° Southwest  Level Estimated
10:19AM 57.0366 -38.2901 242° Southwest  Level Estimated
10:20AM 56.9839 -38.4707 242° Southwest  Level Estimated
10:21AM 56.9310 -38.6507 242° Southwest  Level Estimated
10:22AM 56.8779 -38.8303 242° Southwest  Level Estimated
10:23AM 56.8245 -39.0094 241° Southwest  Level Estimated
10:24AM 56.7708 -39.1880 241° Southwest  Level Estimated
10:25AM 56.7169 -39.3660 241° Southwest  Level Estimated
10:26AM 56.6627 -39.5435 241° Southwest  Level Estimated
10:27AM 56.6082 -39.7206 241° Southwest  Level Estimated
10:28AM 56.5536 -39.8971 241° Southwest  Level Estimated
10:29AM 56.4986 -40.0731 241° Southwest  Level Estimated
10:30AM 56.4435 -40.2486 240° Southwest  Level Estimated
10:31AM 56.3880 -40.4236 240° Southwest  Level Estimated
10:32AM 56.3324 -40.5980 240° Southwest  Level Estimated
10:33AM 56.2764 -40.7720 240° Southwest  Level Estimated
10:34AM 56.2203 -40.9455 240° Southwest  Level Estimated
10:35AM 56.1639 -41.1184 240° Southwest  Level Estimated
10:36AM 56.1072 -41.2909 240° Southwest  Level Estimated
10:36AM 63.1500 -54.8667 239° Southwest 260 299 36,000  Level Gander Center
10:37AM 56.0504 -41.4628 239° Southwest  Level Estimated
10:37AM 63.1167 -55.1333 255° West 390 449 36,000  Level Gander Center
10:38AM 55.9932 -41.6342 239° Southwest  Level Estimated
10:38AM 63.0667 -55.3500 243° Southwest 420 483 36,000  Level Gander Center
10:39AM 55.9301 -41.8221 239° Southwest  Level Estimated
10:39AM 63.0167 -55.5833 245° Southwest 430 495 36,000  Level Gander Center
10:40AM 55.8668 -42.0093 239° Southwest  Level Estimated
10:40AM 62.9667 -55.8167 245° Southwest 420 483 36,000  Level Gander Center
10:41AM 55.8032 -42.1959 239° Southwest  Level Estimated
10:41AM 62.9333 -56.0833 255° West 420 483 36,000  Level Gander Center
10:42AM 55.7393 -42.3820 239° Southwest  Level Estimated
10:42AM 62.8667 -56.3000 236° Southwest 420 483 36,000  Level Gander Center
10:43AM 62.8167 -56.5333 245° Southwest 430 495 36,000  Level Gander Center
10:44AM 62.7667 -56.7500 243° Southwest 430 495 36,000  Level Gander Center
10:45AM 62.7167 -57.0167 248° West 430 495 36,000  Level Gander Center
10:46AM 62.6667 -57.2333 243° Southwest 440 506 36,000  Level Gander Center
10:47AM 62.6167 -57.4667 245° Southwest 440 506 36,000  Level Gander Center
10:48AM 62.5500 -57.7167 240° Southwest 430 495 36,000  Level Gander Center
10:49AM 62.5000 -57.9500 245° Southwest 440 506 36,000  Level Gander Center
10:50AM 62.4333 -58.2000 240° Southwest 440 506 36,000  Level Gander Center
10:51AM 62.4000 -58.4167 252° West 430 495 36,000  Level Gander Center
10:52AM 62.3500 -58.6333 244° Southwest 430 495 36,000  Level Gander Center
10:53AM 62.2833 -58.8500 237° Southwest 430 495 36,000  Level Gander Center
10:54AM 62.2500 -59.1167 255° West 430 495 36,000  Level Gander Center
10:55AM 62.1833 -59.3333 237° Southwest 430 495 36,000  Level Gander Center
10:56AM 62.1333 -59.5500 244° Southwest 430 495 36,000  Level Gander Center
10:57AM 62.0833 -59.7667 244° Southwest 420 483 36,000  Level Gander Center
10:58AM 62.0000 -59.9833 231° Southwest 430 495 36,000  Level Gander Center
10:59AM 61.9167 -60.1500 223° Southwest 430 495 36,000  Level Gander Center
11:00AM 61.8167 -60.3333 221° Southwest 420 483 36,000  Level Gander Center
11:01AM 61.7500 -60.4833 227° Southwest 420 483 36,000  Level Gander Center
11:02AM 61.6667 -60.6500 224° Southwest 430 495 36,000  Level Gander Center
11:03AM 61.5667 -60.8000 216° Southwest 430 495 36,000  Level Gander Center
11:04AM 61.4833 -60.9667 224° Southwest 430 495 36,000  Level Gander Center
11:05AM 61.3833 -61.1500 221° Southwest 420 483 36,000  Level Gander Center
11:06AM 61.3000 -61.2833 218° Southwest 430 495 36,000  Level Gander Center
11:07AM 61.2167 -61.4500 224° Southwest 420 483 36,000  Level Gander Center
11:08AM 61.1167 -61.5833 213° Southwest 420 483 36,000  Level Gander Center
11:09AM 61.0333 -61.7667 227° Southwest 430 495 36,000  Level Gander Center
11:10AM 60.9333 -61.9333 219° Southwest 430 495 36,000  Level Gander Center
11:11AM 60.8500 -62.0667 218° Southwest 420 483 36,000  Level Gander Center
11:12AM 60.7667 -62.2333 224° Southwest 430 495 36,000  Level Gander Center
11:13AM 60.6667 -62.3667 213° Southwest 420 483 36,000  Level Gander Center
11:14AM 60.6000 -62.6000 240° Southwest 460 529 36,000  Level Gander Center
11:15AM 60.5500 -62.8333 247° West 430 495 36,000  Level Gander Center
11:16AM 60.5000 -63.0333 243° Southwest 430 495 36,000  Level Gander Center
11:17AM 60.4667 -63.2667 254° West 440 506 36,000  Level Gander Center
11:18AM 60.4333 -63.5000 254° West 430 495 36,000  Level Gander Center
11:19AM 60.3833 -63.7333 247° West 430 495 36,000  Level Gander Center
11:20AM 60.3333 -63.9667 247° West 430 495 36,000  Level Gander Center
11:21AM 60.2833 -64.2000 247° West 430 495 36,000  Level Gander Center
11:22AM 60.2500 -64.4333 254° West 430 495 36,000  Level Gander Center
11:23AM 60.2167 -64.6333 252° West 430 495 36,000  Level Gander Center
11:24AM 60.1500 -64.8500 238° Southwest 430 495 36,000  Level Gander Center
11:25AM 60.1167 -65.0833 254° West 430 495 36,000  Level Gander Center
11:26AM 60.0500 -65.2500 231° Southwest 430 495 36,000  Level Gander Center
11:27AM 59.9500 -65.4333 223° Southwest 420 483 36,000  Level Gander Center
11:28AM 59.8667 -65.5833 222° Southwest 430 495 36,000  Level Gander Center
11:29AM 59.7833 -65.7500 225° Southwest 430 495 36,000  Level Gander Center
11:30AM 59.6833 -65.9000 217° Southwest 430 495 36,000  Level Gander Center
11:31AM 59.6000 -66.0500 222° Southwest 430 495 36,000  Level Gander Center
11:32AM 59.5167 -66.2000 222° Southwest 430 495 36,000  Level Gander Center
11:33AM 59.4000 -66.3500 213° Southwest 430 495 36,000  Level Gander Center
11:34AM 59.3167 -66.5000 223° Southwest 430 495 36,000  Level Gander Center
11:35AM 59.2333 -66.6500 223° Southwest 420 483 36,000  Level Gander Center
11:36AM 59.1333 -66.8000 218° Southwest 420 483 36,000  Level Gander Center
11:37AM 59.0500 -66.9500 223° Southwest 420 483 36,000  Level Gander Center
11:38AM 58.9667 -67.1000 223° Southwest 430 495 36,000  Level Gander Center
11:39AM 58.8667 -67.2500 218° Southwest 430 495 36,000  Level Gander Center
11:40AM 58.7833 -67.4000 223° Southwest 430 495 36,000  Level Gander Center
11:41AM 58.6833 -67.5333 215° Southwest 430 495 36,000  Level Gander Center
11:42AM 58.6000 -67.6833 223° Southwest 430 495 36,000  Level Gander Center
11:43AM 58.5167 -67.8333 223° Southwest 430 495 36,000  Level Gander Center
11:44AM 58.4167 -67.9667 215° Southwest 430 495 36,000  Level Gander Center
11:45AM 58.3333 -68.1167 223° Southwest 430 495 36,000  Level Gander Center
11:46AM 58.2167 -68.2500 211° Southwest 440 506 36,000  Level Gander Center
11:47AM 58.1500 -68.4000 230° Southwest 450 518 36,000  Level Gander Center
11:48AM 58.0667 -68.4833 208° Southwest 520 598 36,000  Level Gander Center
11:49AM 57.9667 -68.5667 204° Southwest 430 495 36,000  Level Montreal Center
11:50AM 57.8833 -68.7167 224° Southwest 420 483 36,000  Level Montreal Center
11:51AM 57.7833 -68.8167 208° Southwest 420 483 36,000  Level Montreal Center
11:52AM 57.6833 -68.9667 219° Southwest 420 483 36,000  Level Montreal Center
11:53AM 57.5833 -69.0833 212° Southwest 420 483 36,000  Level Montreal Center
11:54AM 57.4833 -69.2333 219° Southwest 420 483 36,000  Level Montreal Center
11:55AM 57.4000 -69.3667 221° Southwest 420 483 36,000  Level Montreal Center
11:56AM 57.3000 -69.4833 212° Southwest 420 483 36,000  Level Montreal Center
11:57AM 57.2000 -69.6167 216° Southwest 420 483 36,000  Level Montreal Center
11:58AM 57.1000 -69.7333 212° Southwest 420 483 36,000  Level Montreal Center
11:59AM 57.0167 -69.8667 221° Southwest 420 483 36,000  Level Montreal Center
12:00PM 56.9167 -69.9833 213° Southwest 420 483 36,000  Level Montreal Center
12:01PM 56.8167 -70.1167 216° Southwest 420 483 36,000  Level Montreal Center
12:02PM 56.7333 -70.2167 213° Southwest 420 483 36,000  Level Montreal Center
12:03PM 56.6333 -70.3333 213° Southwest 420 483 36,000  Level Montreal Center
12:04PM 56.5333 -70.4667 216° Southwest 420 483 36,000  Level Montreal Center
12:05PM 56.4167 -70.6000 212° Southwest 420 483 36,000  Level Montreal Center
12:06PM 56.3333 -70.7000 214° Southwest 420 483 36,000  Level Montreal Center
12:07PM 56.2500 -70.8333 222° Southwest 420 483 36,000  Level Montreal Center
12:08PM 56.1333 -70.9500 209° Southwest 420 483 36,000  Level Montreal Center
12:09PM 56.0333 -71.0833 217° Southwest 420 483 36,000  Level Montreal Center
12:10PM 55.9333 -71.1833 209° Southwest 420 483 36,000  Level Montreal Center
12:11PM 55.8500 -71.3167 222° Southwest 420 483 36,000  Level Montreal Center
12:12PM 55.7500 -71.4167 209° Southwest 410 472 36,000  Level Montreal Center
12:13PM 55.6500 -71.5167 209° Southwest 410 472 36,000  Level Montreal Center
12:14PM 55.5500 -71.6500 217° Southwest 420 483 36,000  Level Montreal Center
12:15PM 55.4667 -71.7500 214° Southwest 410 472 36,000  Level Montreal Center
12:16PM 55.3833 -71.8667 219° Southwest 410 472 36,000  Level Montreal Center
12:17PM 55.2833 -71.9667 210° Southwest 410 472 36,000  Level Montreal Center
12:18PM 55.1833 -72.0667 210° Southwest 410 472 36,000  Level Montreal Center
12:19PM 55.0833 -72.2000 217° Southwest 410 472 36,000  Level Montreal Center
12:20PM 54.9833 -72.3000 210° Southwest 410 472 36,000  Level Montreal Center
12:21PM 54.8833 -72.4167 214° Southwest 400 460 36,000  Level Montreal Center
12:22PM 54.7833 -72.5167 210° Southwest 410 472 36,000  Level Montreal Center
12:23PM 54.6833 -72.6333 214° Southwest 410 472 36,000  Level Montreal Center
12:24PM 54.6000 -72.7333 215° Southwest 410 472 36,000  Level Montreal Center
12:25PM 54.5167 -72.8333 215° Southwest 400 460 36,000  Level Montreal Center
12:26PM 54.4167 -72.9500 214° Southwest 410 472 36,000  Level Montreal Center
12:27PM 54.3167 -73.0500 210° Southwest 400 460 36,000  Level Montreal Center
12:28PM 54.2167 -73.1333 206° Southwest 400 460 36,000  Level Montreal Center
12:29PM 54.1167 -73.2667 218° Southwest 400 460 36,000  Level Montreal Center
12:30PM 54.0167 -73.3500 206° Southwest 400 460 36,000  Level Montreal Center
12:31PM 53.9167 -73.4833 218° Southwest 400 460 36,000  Level Montreal Center
12:32PM 53.8333 -73.5667 211° Southwest 400 460 36,000  Level Montreal Center
12:33PM 53.7333 -73.6500 206° Southwest 400 460 36,000  Level Montreal Center
12:34PM 53.6333 -73.7500 211° Southwest 410 472 36,000  Level Montreal Center
12:35PM 53.5333 -73.8333 206° Southwest 400 460 36,000  Level Montreal Center
12:36PM 53.4333 -73.9333 211° Southwest 400 460 36,000  Level Montreal Center
12:37PM 53.3333 -74.0167 206° Southwest 400 460 36,000  Level Montreal Center
12:38PM 53.2333 -74.0833 202° Southwest 400 460 36,000  Level Montreal Center
12:39PM 53.1333 -74.1667 207° Southwest 400 460 36,000  Level Montreal Center
12:40PM 53.0333 -74.2500 207° Southwest 390 449 36,000  Level Montreal Center
12:41PM 52.9500 -74.3500 216° Southwest 390 449 36,000  Level Montreal Center
12:42PM 52.8333 -74.4000 195° South 390 449 36,000  Level Montreal Center
12:43PM 52.7333 -74.4833 207° Southwest 390 449 36,000  Level Montreal Center
12:44PM 52.6500 -74.5833 216° Southwest 390 449 36,000  Level Montreal Center
12:45PM 52.5500 -74.6667 207° Southwest 400 460 36,000  Level Montreal Center
12:46PM 52.4333 -74.7500 204° Southwest 390 449 36,000  Level Montreal Center
12:47PM 52.3333 -74.8000 197° South 400 460 36,000  Level Montreal Center
12:48PM 52.2333 -74.9000 211° Southwest 390 449 36,000  Level Montreal Center
12:49PM 52.1333 -74.9833 207° Southwest 400 460 36,000  Level Montreal Center
12:50PM 52.0333 -75.0667 207° Southwest 400 460 36,000  Level Montreal Center
12:51PM 51.9333 -75.1500 207° Southwest 390 449 36,000  Level Montreal Center
12:52PM 51.8500 -75.2000 200° South 390 449 36,000  Level Montreal Center
12:53PM 51.7333 -75.2833 204° Southwest 390 449 36,000  Level Montreal Center
12:54PM 51.6500 -75.3667 212° Southwest 390 449 36,000  Level Montreal Center
12:55PM 51.5500 -75.4167 197° South 390 449 36,000  Level Montreal Center
12:56PM 51.4500 -75.5000 207° Southwest 390 449 36,000  Level Montreal Center
12:57PM 51.3500 -75.5833 208° Southwest 380 437 36,000  Level Montreal Center
12:58PM 51.2667 -75.6500 207° Southwest 380 437 36,000  Level Montreal Center
12:59PM 51.1667 -75.7167 203° Southwest 370 426 36,000  Level Montreal Center
01:00PM 51.0667 -75.8000 208° Southwest 370 426 36,000  Level Montreal Center
01:01PM 50.9833 -75.8500 201° Southwest 370 426 36,000  Level Montreal Center
01:02PM 50.8833 -75.9333 208° Southwest 370 426 36,000  Level Montreal Center
01:03PM 50.8000 -76.0000 207° Southwest 370 426 36,000  Level Montreal Center
01:04PM 50.7000 -76.0667 203° Southwest 370 426 36,000  Level Montreal Center
01:05PM 50.6167 -76.1500 212° Southwest 370 426 36,000  Level Montreal Center
01:06PM 50.5167 -76.2000 198° South 370 426 36,000  Level Montreal Center
01:07PM 50.4167 -76.2833 208° Southwest 370 426 36,000  Level Montreal Center
01:08PM 50.3333 -76.3333 201° Southwest 370 426 36,000  Level Montreal Center
01:09PM 50.2333 -76.4167 208° Southwest 370 426 36,000  Level Montreal Center
01:10PM 50.1500 -76.4833 207° Southwest 370 426 36,000  Level Montreal Center
01:11PM 50.0333 -76.5500 200° South 380 437 36,000  Level Montreal Center
01:12PM 49.9333 -76.6167 203° Southwest 380 437 36,000  Level Montreal Center
01:13PM 49.8333 -76.7000 208° Southwest 380 437 36,000  Level Montreal Center
01:14PM 49.7500 -76.7500 201° Southwest 380 437 36,000  Level Montreal Center
01:15PM 49.6333 -76.8167 200° South 390 449 36,000  Level Montreal Center
01:16PM 49.5500 -76.9000 213° Southwest 370 426 36,000  Level Montreal Center
01:17PM 49.4500 -76.9667 203° Southwest 380 437 36,000  Level Montreal Center
01:18PM 49.3500 -77.0167 198° South 400 460 36,000  Level Montreal Center
01:19PM 49.2667 -77.1000 213° Southwest 370 426 36,000  Level Montreal Center
01:20PM 49.1667 -77.1500 198° South 370 426 36,000  Level Montreal Center
01:21PM 49.0667 -77.2167 204° Southwest 390 449 36,000  Level Montreal Center
01:22PM 48.9667 -77.3000 209° Southwest 380 437 36,000  Level Montreal Center
01:23PM 48.8667 -77.3500 198° South 390 449 36,000  Level Montreal Center
01:24PM 48.7667 -77.4167 204° Southwest 380 437 36,000  Level Montreal Center
01:25PM 48.6667 -77.5000 209° Southwest 390 449 36,000  Level Montreal Center
01:26PM 48.5667 -77.5667 204° Southwest 390 449 36,000  Level Montreal Center
01:27PM 48.4833 -77.6167 202° Southwest 380 437 36,000  Level Montreal Center
01:28PM 48.3833 -77.6833 204° Southwest 380 437 36,000  Level Montreal Center
01:29PM 48.2833 -77.7667 209° Southwest 390 449 36,000  Level Montreal Center
01:30PM 48.1833 -77.8333 204° Southwest 390 449 36,000  Level Montreal Center
01:31PM 48.0833 -77.8833 198° South 390 449 36,000  Level Montreal Center
01:32PM 47.9667 -77.9500 201° Southwest 400 460 36,000  Level Montreal Center
01:33PM 47.8667 -78.0000 199° South 400 460 36,000  Level Montreal Center
01:34PM 47.7500 -78.0667 201° Southwest 400 460 36,000  Level Montreal Center
01:35PM 47.6500 -78.1167 199° South 400 460 36,000  Level Montreal Center
01:36PM 47.5667 -78.1833 208° Southwest 400 460 36,000  Level Montreal Center
01:37PM 47.4500 -78.2500 201° Southwest 390 449 36,000  Level Montreal Center
01:38PM 47.3500 -78.3000 199° South 390 449 36,000  Level Montreal Center
01:39PM 47.2500 -78.3667 204° Southwest 390 449 36,000  Level Montreal Center
01:40PM 47.1500 -78.4167 199° South 400 460 36,000  Level Montreal Center
01:41PM 47.0333 -78.4833 201° Southwest 400 460 36,000  Level Montreal Center
01:42PM 46.9333 -78.5167 193° South 390 449 36,000  Level Montreal Center
01:43PM 46.8667 -78.5333 190° South 400 460 36,000  Level Toronto Center
01:44PM 46.7667 -78.6167 210° Southwest 390 449 36,000  Level Toronto Center
01:45PM 46.6667 -78.6667 199° South 390 449 36,000  Level Toronto Center
01:46PM 46.5667 -78.7167 199° South 400 460 36,000  Level Toronto Center
01:47PM 46.4667 -78.7667 199° South 400 460 36,000  Level Toronto Center
01:48PM 46.3500 -78.8333 202° Southwest 400 460 36,000  Level Toronto Center
01:49PM 46.2500 -78.8833 199° South 400 460 36,000  Level Toronto Center
01:50PM 46.1333 -78.9500 202° Southwest 400 460 36,000  Level Toronto Center
01:51PM 46.0333 -79.0000 199° South 400 460 36,000  Level Toronto Center
01:52PM 45.9333 -79.0500 199° South 400 460 36,000  Level Toronto Center
01:57PM 45.4206 -79.3571 199° South 393 452 36,000  Level FlightAware ADS-B
02:00PM 45.1034 -79.5235 200° South 396 456 36,000  Level FlightAware ADS-B
02:01PM 45.0675 -79.5423 200° South 402 463 36,000  Level FlightAware ADS-B (CYKF)
02:02PM 44.9563 -79.6001 200° South 400 460 36,000  Level FlightAware ADS-B
02:02PM 44.8464 -79.6570 200° South 409 471 36,000  Level FlightAware ADS-B (CYKZ)
02:03PM 44.7819 -79.6903 200° South 411 473 36,000  Level FlightAware ADS-B (CYKZ)
02:04PM 44.7071 -79.7289 200° South 410 472 36,000  Level FlightAware ADS-B (CYKZ)
02:04PM 44.6424 -79.7621 200° South 410 472 36,000  Level FlightAware ADS-B (CYKZ)
02:04PM 44.6365 -79.7651 200° South 410 472 36,000  Level FlightAware ADS-B (CYKF)
02:05PM 44.5742 -79.8022 203° Southwest 402 463 36,000  Level FlightAware ADS-B
02:06PM 44.5006 -79.8656 212° Southwest 404 465 36,000  Level FlightAware ADS-B
02:06PM 44.4430 -79.9183 213° Southwest 405 466 36,000  Level FlightAware ADS-B
02:07PM 44.3724 -79.9820 213° Southwest 406 467 36,000  Level FlightAware ADS-B
02:08PM 44.3155 -80.0331 213° Southwest 414 476 36,000  Level FlightAware ADS-B (CYKZ)
02:08PM 44.2504 -80.0913 213° Southwest 416 479 36,000  Level FlightAware ADS-B (CYKZ)
02:09PM 44.2022 -80.1344 213° Southwest 416 479 36,000  Level FlightAware ADS-B (CYKF)
02:10PM 44.2022 -80.1344 213° Southwest 418 481 36,000  Level FlightAware ADS-B (CYKF)
02:10PM 44.0602 -80.2606 213° Southwest 424 488 36,000  Level FlightAware ADS-B (CYKF)
02:11PM 43.9955 -80.3178 212° Southwest 423 487 36,000  Level FlightAware ADS-B (CYKZ)
02:12PM 43.9206 -80.3840 212° Southwest 421 484 36,000  Level FlightAware ADS-B (CYKF)
02:12PM 43.8619 -80.4357 212° Southwest 421 484 36,000  Level FlightAware ADS-B (CYKF)
02:13PM 43.8030 -80.4875 212° Southwest 421 484 36,000  Level FlightAware ADS-B (CYKF)
02:13PM 43.7473 -80.5363 212° Southwest 422 486 36,000  Level FlightAware ADS-B (CYKZ)
02:14PM 43.6936 -80.5833 212° Southwest 422 486 36,000  Level FlightAware ADS-B (CYKZ)
02:15PM 43.6082 -80.6579 212° Southwest 423 487 36,000  Level FlightAware ADS-B (CYKF)
02:16PM 43.5315 -80.7245 212° Southwest 425 489 36,000  Level FlightAware ADS-B (CYKZ)
02:16PM 43.4816 -80.7679 212° Southwest 426 490 36,000  Level FlightAware ADS-B (CYKZ)
02:17PM 43.4511 -80.7943 212° Southwest 427 491 36,000  Level FlightAware ADS-B (CYKF)
02:17PM 43.3347 -80.8951 212° Southwest 428 493 36,000  Level FlightAware ADS-B (CYKZ)
02:18PM 43.2726 -80.9483 212° Southwest 430 495 36,000  Level FlightAware ADS-B (CYKZ)
02:19PM 43.2034 -81.0077 212° Southwest 430 495 36,000  Level FlightAware ADS-B (CYKZ)
02:19PM 43.1389 -81.0629 212° Southwest 430 495 36,000  Level FlightAware ADS-B (CYKZ)
02:20PM 43.0646 -81.1262 212° Southwest 429 494 36,000  Level FlightAware ADS-B (CYKZ)
02:21PM 43.0298 -81.1528 209° Southwest 430 495 36,000  Level FlightAware ADS-B (CYKF)
02:21PM 42.9546 -81.1992 204° Southwest 430 495 36,000  Level FlightAware ADS-B (CYKF)
02:22PM 42.8575 -81.2603 205° Southwest 431 496 36,000  Level FlightAware ADS-B (CYKZ)
02:23PM 42.7997 -81.2961 204° Southwest 432 497 36,000  Level FlightAware ADS-B (CYKF)
02:23PM 42.7172 -81.3471 204° Southwest 435 501 36,000  Level FlightAware ADS-B (CYKZ)
02:24PM 42.6532 -81.3862 204° Southwest 435 501 36,000  Level FlightAware ADS-B (CYKZ)
02:25PM 42.5884 -81.4257 204° Southwest 434 499 36,000  Level FlightAware ADS-B (CYKZ)
02:25PM 42.5315 -81.4604 204° Southwest 434 499 36,000  Level FlightAware ADS-B (CYKZ)
02:26PM 42.4992 -81.4802 204° Southwest 433 498 36,000  Level FlightAware ADS-B (CYKZ)
02:26PM 42.3971 -81.5422 204° Southwest 433 498 36,000  Level FlightAware ADS-B (CYKZ)
02:27PM 42.3468 -81.5727 204° Southwest 434 499 36,000  Level FlightAware ADS-B (CYKZ)
02:28PM 42.2550 -81.6282 204° Southwest 436 502 36,000  Level FlightAware ADS-B (CYKZ)
02:28PM 42.2550 -81.6282 204° Southwest 438 504 36,000  Level FlightAware ADS-B (CYKZ)
02:29PM 42.1244 -81.7072 204° Southwest 437 503 36,000  Level Cleveland Center
02:30PM 42.0128 -81.7742 204° Southwest 436 502 36,000  Level Cleveland Center
02:31PM 41.9003 -81.8403 204° Southwest 438 504 36,000  Level Cleveland Center
02:32PM 41.7703 -81.9172 204° Southwest 435 501 36,000  Level Cleveland Center
02:33PM 41.6594 -81.9844 204° Southwest 437 503 36,000  Level Cleveland Center
02:34PM 41.5472 -82.0506 204° Southwest 440 506 36,000  Level Cleveland Center
02:35PM 41.4350 -82.1167 204° Southwest 441 507 36,000  Level Cleveland Center
02:36PM 41.3203 -82.1744 201° Southwest 442 509 36,000  Level Cleveland Center
02:37PM 41.2003 -82.2167 195° South 446 513 36,000  Level Cleveland Center
02:38PM 41.0814 -82.2611 196° South 445 512 36,000  Level Cleveland Center
02:39PM 40.9600 -82.3036 195° South 448 516 36,000  Level Cleveland Center
02:40PM 40.8575 -82.3400 195° South 448 516 36,000  Level Indianapolis Center
02:41PM 40.7358 -82.3828 195° South 450 518 36,000  Level Indianapolis Center
02:42PM 40.6147 -82.4253 195° South 448 516 36,000  Level Indianapolis Center
02:43PM 40.4925 -82.4694 195° South 451 519 36,000  Level Indianapolis Center
02:49PM 39.7280 -82.6172 195° South 464 534 36,000  Level FlightAware ADS-B (KPMH)
02:49PM 39.6598 -82.6218 183° South 464 534 36,000  Level FlightAware ADS-B (KPMH)
02:50PM 39.5807 -82.6272 183° South 465 535 36,000  Level FlightAware ADS-B (KPMH)
02:51PM 39.5068 -82.6321 183° South 466 536 36,000  Level FlightAware ADS-B (KPMH)
02:51PM 39.4143 -82.6383 183° South 465 535 36,000  Level FlightAware ADS-B (KPMH)
02:52PM 39.3630 -82.6417 183° South 466 536 36,000  Level FlightAware ADS-B (KPMH)
02:53PM 39.2367 -82.6502 183° South 467 537 36,000  Level FlightAware ADS-B (KPMH)
02:53PM 39.1469 -82.6561 183° South 469 540 36,000  Level FlightAware ADS-B (KPMH)
02:54PM 39.0302 -82.6638 183° South 470 541 36,000  Level FlightAware ADS-B (KPMH)
02:55PM 38.9431 -82.6696 183° South 471 542 36,000  Level FlightAware ADS-B (KPMH)
02:56PM 38.8660 -82.6746 183° South 472 543 36,000  Level FlightAware ADS-B (KPMH)
02:56PM 38.7757 -82.6805 183° South 472 543 36,000  Level FlightAware ADS-B (KPMH)
02:57PM 38.7109 -82.6848 183° South 471 542 36,000  Level FlightAware ADS-B (KPMH)
02:58PM 38.5175 -82.6978 183° South 472 543 36,000  Level Indianapolis Center
02:59PM 38.3850 -82.7067 183° South 475 547 36,000  Level Indianapolis Center
03:00PM 38.2519 -82.7147 183° South 477 549 36,000  Level Indianapolis Center
03:01PM 38.1194 -82.7253 184° South 477 549 36,000  Level Indianapolis Center
03:02PM 37.9864 -82.7333 183° South 477 549 36,000  Level Indianapolis Center
03:03PM 37.8525 -82.7422 183° South 479 551 36,000  Level Indianapolis Center
03:04PM 37.7197 -82.7550 184° South 480 552 36,000  Level Indianapolis Center
03:05PM 37.5939 -82.8058 198° South 475 547 36,000  Level Indianapolis Center
03:06PM 37.4794 -82.8831 208° Southwest 468 539 36,000  Level Indianapolis Center
03:08PM 37.3461 -82.9700 207° Southwest 465 535 36,000  Level Indianapolis Center
03:09PM 37.2317 -83.0447 207° Southwest 465 535 36,000  Level Indianapolis Center
03:10PM 37.1175 -83.1181 207° Southwest 464 534 36,000  Level Indianapolis Center
03:11PM 37.0058 -83.1928 208° Southwest 461 531 36,000  Level Indianapolis Center
03:12PM 36.8917 -83.2664 207° Southwest 464 534 36,000  Level Indianapolis Center
03:13PM 36.7769 -83.3400 207° Southwest 465 535 36,000  Level Indianapolis Center
03:14PM 36.6428 -83.4256 207° Southwest 465 535 36,000  Level Indianapolis Center
03:15PM 36.5281 -83.4989 207° Southwest 464 534 36,000  Level Indianapolis Center
03:16PM 36.4061 -83.5764 207° Southwest 464 534 36,000  Level Indianapolis Center
03:17PM 36.2922 -83.6483 207° Southwest 461 531 36,000  Level Indianapolis Center
03:18PM 36.1831 -83.7172 207° Southwest 446 513 36,000  Level Indianapolis Center
03:19PM 36.0736 -83.7875 207° Southwest 442 509 36,000  Level Indianapolis Center
03:25PM 35.3386 -84.0319 207° Southwest 463 533 36,000  Level FlightAware ADS-B (KDZJ)
03:26PM 35.2139 -84.0620 191° South 472 543 36,000  Level FlightAware ADS-B (KDZJ)
03:26PM 35.1277 -84.0826 191° South 462 532 36,000  Level FlightAware ADS-B (KDZJ)
03:27PM 35.0539 -84.1003 191° South 462 532 36,000  Level FlightAware ADS-B (KDZJ)
03:28PM 34.9578 -84.1233 191° South 463 533 36,000  Level FlightAware ADS-B (KDZJ)
03:28PM 34.8733 -84.1433 191° South 463 533 36,000  Level FlightAware ADS-B (KDZJ)
03:29PM 34.7846 -84.1645 191° South 473 544 36,000  Level FlightAware ADS-B (KDZJ)
03:30PM 34.6995 -84.1846 191° South 463 533 36,000  Level FlightAware ADS-B (KDZJ)
03:30PM 34.6177 -84.2039 191° South 472 543 36,000  Level FlightAware ADS-B (KDZJ)
03:31PM 34.5298 -84.2246 191° South 473 544 36,000  Level FlightAware ADS-B (KDZJ)
03:32PM 34.4409 -84.2457 191° South 473 544 36,000  Level FlightAware ADS-B (KDZJ)
03:32PM 34.3537 -84.2663 191° South 475 547 36,000  Level FlightAware ADS-B (KDZJ)
03:33PM 34.2695 -84.2859 191° South 474 545 36,000  Level FlightAware ADS-B (KDZJ)
03:34PM 34.1819 -84.3065 191° South 473 544 36,000  Level FlightAware ADS-B (KDZJ)
03:34PM 34.0969 -84.3264 191° South 462 532 36,000  Level FlightAware ADS-B (KDZJ)
03:35PM 34.0130 -84.3460 191° South 472 543 36,000  Level FlightAware ADS-B (KDZJ)
03:36PM 33.9490 -84.3609 191° South 472 543 36,000  Level FlightAware ADS-B (KDZJ)
03:37PM 33.7853 -84.4011 191° South 476 548 36,000  Level Atlanta Center
03:38PM 33.6539 -84.4306 191° South 476 548 36,000  Level Atlanta Center
03:39PM 33.5036 -84.4375 182° South 481 554 36,000 -60 Level Atlanta Center
03:40PM 33.3658 -84.4344 179° South 494 568 35,900 -480 Descending Atlanta Center
03:41PM 33.2258 -84.4336 180° South 494 568 35,100 -480 Descending Atlanta Center
03:42PM 33.0881 -84.4281 178° South 494 568 35,000 -60 Descending Atlanta Center
03:43PM 32.9483 -84.4275 180° South 494 568 35,000  Level Atlanta Center
03:44PM 32.8042 -84.4244 179° South 499 574 35,000  Level Atlanta Center
03:45PM 32.6792 -84.4164 177° South 499 574 35,000  Level Atlanta Center
03:46PM 32.5392 -84.4133 179° South 499 574 35,000  Level Atlanta Center
03:47PM 32.3972 -84.4103 179° South 504 580 35,000  Level Atlanta Center
03:48PM 32.2553 -84.4097 180° South 504 580 35,000  Level Atlanta Center
03:49PM 32.0572 -84.4025 178° South 511 588 35,000  Level Jacksonville Center
03:50PM 31.9133 -84.4003 179° South 516 594 35,000  Level Jacksonville Center
03:51PM 31.7714 -84.4003 180° South 516 594 35,000  Level Jacksonville Center
03:58PM 30.8943 -84.3805 180° South 499 574 35,000  Level FlightAware ADS-B (KTLH)
03:59PM 30.7336 -84.3770 179° South 496 571 35,000  Level FlightAware ADS-B (KTLH)
03:59PM 30.6492 -84.3669 174° South 504 580 35,000  Level FlightAware ADS-B (KTLH)
04:00PM 30.5479 -84.3403 167° South 513 590 35,000  Level FlightAware ADS-B (KTLH)
04:01PM 30.4756 -84.3113 161° South 522 601 35,000  Level FlightAware ADS-B (KTLH)
04:01PM 30.3658 -84.2486 154° Southeast 531 611 35,000  Level FlightAware ADS-B (KTLH)
04:02PM 30.2753 -84.1895 151° Southeast 532 612 35,000  Level FlightAware ADS-B (KTLH)
04:03PM 30.1960 -84.1380 151° Southeast 532 612 35,000  Level FlightAware ADS-B (KTLH)
04:03PM 30.1159 -84.0860 151° Southeast 533 613 35,000  Level FlightAware ADS-B (KTLH)
04:04PM 30.0214 -84.0245 151° Southeast 533 613 35,000  Level FlightAware ADS-B (KTLH)
04:05PM 29.8572 -83.9200 151° Southeast 533 613 35,000  Level Jacksonville Center
04:06PM 29.7306 -83.8397 151° Southeast 533 613 35,000  Level Jacksonville Center
04:07PM 29.5997 -83.7547 151° Southeast 533 613 35,000  Level Jacksonville Center
04:08PM 29.4728 -83.6703 150° Southeast 528 608 35,000  Level Jacksonville Center
04:09PM 29.3439 -83.5883 151° Southeast 528 608 35,000  Level Jacksonville Center
04:10PM 29.2128 -83.5064 151° Southeast 528 608 35,000  Level Jacksonville Center
04:11PM 29.0858 -83.4272 151° Southeast 528 608 35,000  Level Jacksonville Center
04:12PM 28.9567 -83.3433 150° Southeast 528 608 35,000  Level Jacksonville Center
04:18PM 28.1989 -82.8651 150° Southeast 520 598 35,000  Level FlightAware ADS-B (KMCO)
04:21PM 27.8471 -82.6452 151° Southeast 520 598 35,000  Level FlightAware ADS-B (KMCO)
04:22PM 27.7639 -82.5885 149° Southeast 521 600 35,000  Level FlightAware ADS-B (KMCO)
04:22PM 27.6814 -82.5331 149° Southeast 519 597 35,000  Level FlightAware ADS-B (KMCO)
04:23PM 27.5987 -82.4781 149° Southeast 515 593 35,000  Level FlightAware ADS-B (KMCO)
04:24PM 27.4861 -82.4034 150° Southeast 515 593 35,000  Level FlightAware ADS-B (KMCO)
04:25PM 27.3701 -82.3263 149° Southeast 497 572 35,000  Level FlightAware ADS-B (KMCO)
04:26PM 27.2924 -82.2749 150° Southeast 490 564 35,000  Level FlightAware ADS-B (KMCO)
04:26PM 27.1998 -82.2141 150° Southeast 483 556 35,000  Level FlightAware ADS-B (KMCO)
04:29PM 26.8784 -82.0777 159° South 462 532 35,000  Level FlightAware ADS-B (KMCO)
04:30PM 26.7959 -82.0437 160° South 459 528 35,000  Level FlightAware ADS-B (KMCO)
04:30PM 26.7196 -82.0121 160° South 456 525 35,000  Level FlightAware ADS-B (KMCO)
04:31PM 26.6387 -81.9788 160° South 453 521 35,000  Level FlightAware ADS-B (KMCO)
04:32PM 26.5562 -81.9447 160° South 451 519 35,000  Level FlightAware ADS-B (KMCO)
04:32PM 26.4790 -81.9130 160° South 450 518 35,000  Level FlightAware ADS-B (KMCO)
04:33PM 26.4033 -81.8819 160° South 448 516 35,000  Level FlightAware ADS-B (KMCO)
04:34PM 26.3233 -81.8492 160° South 446 513 35,000  Level FlightAware ADS-B (KMCO)
04:34PM 26.2470 -81.8180 160° South 447 514 35,000  Level FlightAware ADS-B (KMCO)
04:35PM 26.1724 -81.7875 160° South 448 516 35,000  Level FlightAware ADS-B (KMCO)
04:36PM 26.0781 -81.7483 160° South 447 514 35,000  Level Miami Center
04:37PM 25.9583 -81.7019 161° South 447 514 35,000  Level Miami Center
04:38PM 25.8408 -81.6558 161° South 447 514 35,000  Level Miami Center
04:39PM 25.7236 -81.6050 159° South 447 514 35,000  Level Miami Center
04:40PM 25.6039 -81.5611 162° South 447 514 35,000  Level Miami Center
04:41PM 25.4853 -81.5450 173° South 445 512 35,000  Level Miami Center
04:42PM 25.3703 -81.5519 183° South 424 488 35,000  Level Miami Center
04:43PM 25.2628 -81.5847 195° South 410 472 35,000 -360 Level Miami Center
04:44PM 25.1511 -81.6147 194° South 410 472 34,300 -900 Descending Miami Center
04:45PM 25.0414 -81.6472 195° South 410 472 33,300 -1,020 Descending Miami Center
04:46PM 24.9317 -81.6794 195° South 415 478 32,300 -1,080 Descending Miami Center
04:47PM 24.8264 -81.7075 194° South 409 471 31,200 -1,080 Descending Miami Center
04:48PM 24.7167 -81.7419 196° South 409 471 30,200 1,860 Descending Miami Center
04:49PM 24.6044 -81.7878 200° South 409 471 35,000 -960 Climbing Miami Center
04:50PM 24.5042 -81.8522 210° Southwest 417 480 28,300 -3,900 Descending Miami Center
04:51PM 24.4367 -81.9339 228° Southwest 398 458 27,300 -1,020 Descending Miami Center
04:52PM 24.3711 -82.0247 232° Southwest 382 440 26,300 -1,020 Descending Miami Center
04:53PM 24.3053 -82.1131 231° Southwest 382 440 25,300 -1,020 Descending Miami Center
04:54PM 24.2417 -82.2014 232° Southwest 382 440 24,300 -1,020 Descending Miami Center
04:55PM 24.1781 -82.2853 230° Southwest 382 440 23,300 -1,020 Descending Miami Center
04:56PM 24.1164 -82.3689 231° Southwest 370 426 22,300 -660 Descending Miami Center
04:57PM 24.0428 -82.4453 223° Southwest 365 420 22,000 -300 Descending Miami Center
04:59PM 23.8941 -82.5015 173° South  Level FlightAware Approximate
05:06PM 23.0433 -82.4000 180° South  Level FlightAware Approximate
05:07PM 22.9891 -82.4091 180° South  Level Estimated
05:08PM 22.9891 -82.4091 180° South  Level Estimated
05:09PM 22.9891 -82.4091 180° South  Level Estimated
05:10PM 22.9891 -82.4091 180° South  Level Estimated
05:11PM 22.9891 -82.4091 180° South  Level Estimated
05:12PM 22.9891 -82.4091 180° South  Level Estimated
05:13PM 22.9891 -82.4091 180° South  Level Estimated
05:14PM 22.9891 -82.4091 180° South  Level Estimated
05:15PM 22.9891 -82.4091 180° South  Level Estimated
05:16PM 22.9891 -82.4091 180° South  Level Estimated
05:17PM 22.9891 -82.4091 180° South  Level Estimated
05:18PM 22.9891 -82.4091 180° South  Level Estimated
05:19PM 22.9891 -82.4091 180° South  Level Estimated
05:20PM 22.9891 -82.4091 180° South  Level Estimated
05:21PM 22.9891 -82.4091 180° South  Level Estimated
05:22PM 22.9891 -82.4091 180° South  Level Estimated
05:23PM 22.9891 -82.4091 180° South  Level Estimated
05:24PM 22.9891 -82.4091 180° South  Level Estimated
05:25PM 22.9891 -82.4091 180° South  Level Estimated
05:26PM 22.9891 -82.4091 180° South  Level Estimated
05:27PM 22.9891 -82.4091 180° South  Level Estimated
05:28PM 22.9891 -82.4091 180° South  Level Estimated